createdAt,value
2019-01-16T00:02:41.815Z,99.30
2019-01-16T00:05:30.120Z,99.20
2019-01-16T00:08:17.348Z,99.20
2019-01-16T00:11:00.756Z,99.20
2019-01-16T00:14:04.354Z,99.30
2019-01-16T00:16:55.183Z,99.30
2019-01-16T00:19:46.935Z,99.40
2019-01-16T00:22:44.949Z,99.50
2019-01-16T00:25:36.424Z,99.30
2019-01-16T00:28:42.953Z,99.30
2019-01-16T00:31:37.144Z,99.40
2019-01-16T00:34:15.380Z,99.40
2019-01-16T00:36:59.939Z,99.30
2019-01-16T00:39:57.347Z,99.40
2019-01-16T00:43:04.114Z,99.30
2019-01-16T00:45:43.570Z,99.40
2019-01-16T00:48:25.169Z,99.30
2019-01-16T00:51:12.119Z,99.80
2019-01-16T00:54:15.862Z,99.90
2019-01-16T00:57:00.703Z,99.90
2019-01-16T00:59:43.753Z,99.50
2019-01-16T01:02:30.660Z,99.50
2019-01-16T01:05:34.527Z,99.60
2019-01-16T01:08:40.735Z,99.80
2019-01-16T01:11:32.044Z,99.30
2019-01-16T01:14:32.545Z,99.60
2019-01-16T01:17:11.609Z,99.70
2019-01-16T01:20:05.518Z,99.60
2019-01-16T01:22:51.367Z,99.60
2019-01-16T01:25:45.920Z,99.70
2019-01-16T01:28:34.258Z,99.70
2019-01-16T01:31:25.245Z,99.70
2019-01-16T01:34:21.530Z,99.70
2019-01-16T01:37:13.122Z,99.60
2019-01-16T01:40:06.238Z,99.50
2019-01-16T01:42:53.258Z,99.70
2019-01-16T01:45:41.624Z,99.50
2019-01-16T01:48:30.936Z,99.50
2019-01-16T01:51:22.169Z,99.40
2019-01-16T01:54:16.500Z,99.40
2019-01-16T01:57:10.849Z,99.30
2019-01-16T01:59:51.623Z,99.50
2019-01-16T02:02:44.166Z,99.50
2019-01-16T02:05:31.703Z,99.60
2019-01-16T02:08:22.767Z,99.50
2019-01-16T02:11:11.041Z,99.40
2019-01-16T02:13:59.621Z,99.30
2019-01-16T02:16:46.506Z,99.40
2019-01-16T02:19:29.919Z,99.10
2019-01-16T02:22:17.109Z,98.80
2019-01-16T02:25:08.296Z,98.80
2019-01-16T02:27:44.580Z,98.70
2019-01-16T02:30:36.033Z,99.00
2019-01-16T02:33:24.306Z,99.00
2019-01-16T02:36:07.954Z,98.90
2019-01-16T02:38:57.909Z,98.70
2019-01-16T02:41:54.817Z,98.70
2019-01-16T02:44:49.291Z,98.90
2019-01-16T02:47:36.539Z,98.90
2019-01-16T02:50:24.219Z,98.70
2019-01-16T02:53:12.034Z,98.90
2019-01-16T02:56:12.675Z,98.90
2019-01-16T02:58:51.899Z,98.90
2019-01-16T03:01:49.217Z,98.70
2019-01-16T03:04:37.488Z,98.90
2019-01-16T03:07:19.532Z,99.10
2019-01-16T03:10:16.855Z,99.10
2019-01-16T03:13:01.770Z,99.00
2019-01-16T03:15:56.025Z,99.10
2019-01-16T03:18:47.130Z,99.20
2019-01-16T03:21:34.351Z,99.10
2019-01-16T03:24:25.441Z,99.10
2019-01-16T03:27:19.518Z,98.80
2019-01-16T03:30:07.779Z,99.00
2019-01-16T03:32:48.318Z,99.00
2019-01-16T03:35:55.062Z,99.00
2019-01-16T03:38:40.609Z,99.00
2019-01-16T03:41:40.968Z,98.60
2019-01-16T03:44:32.314Z,98.80
2019-01-16T03:47:27.218Z,98.80
2019-01-16T03:50:30.883Z,99.00
2019-01-16T03:53:31.343Z,99.10
2019-01-16T03:56:22.471Z,99.10
2019-01-16T03:59:29.219Z,99.20
2019-01-16T04:02:16.434Z,99.20
2019-01-16T04:05:03.573Z,99.30
2019-01-16T04:07:51.878Z,99.10
2019-01-16T04:10:40.233Z,98.90
2019-01-16T04:13:27.247Z,98.80
2019-01-16T04:16:14.716Z,98.70
2019-01-16T04:19:05.893Z,98.70
2019-01-16T04:21:57.206Z,98.70
2019-01-16T04:24:54.823Z,98.60
2019-01-16T04:27:46.961Z,98.70
2019-01-16T04:30:53.820Z,98.60
2019-01-16T04:33:51.286Z,98.80
2019-01-16T04:36:43.239Z,98.80
2019-01-16T04:39:34.410Z,98.70
2019-01-16T04:42:28.514Z,98.40
2019-01-16T04:45:15.677Z,98.30
2019-01-16T04:48:02.996Z,98.20
2019-01-16T04:50:51.278Z,98.20
2019-01-16T04:53:45.616Z,98.30
2019-01-16T04:56:33.872Z,98.30
2019-01-16T04:59:22.136Z,98.30
2019-01-16T05:02:13.178Z,98.40
2019-01-16T05:05:01.406Z,98.50
2019-01-16T05:07:55.701Z,98.50
2019-01-16T05:10:41.703Z,98.70
2019-01-16T05:13:28.596Z,98.80
2019-01-16T05:16:15.523Z,99.00
2019-01-16T05:19:15.922Z,98.60
2019-01-16T05:21:59.026Z,98.70
2019-01-16T05:25:02.654Z,98.70
2019-01-16T05:27:49.181Z,98.80
2019-01-16T05:30:38.310Z,98.70
2019-01-16T05:33:15.980Z,98.60
2019-01-16T05:36:13.406Z,98.80
2019-01-16T05:39:04.491Z,99.20
2019-01-16T05:42:04.331Z,99.50
2019-01-16T05:44:58.468Z,99.60
2019-01-16T05:47:45.344Z,99.90
2019-01-16T05:50:42.303Z,99.90
2019-01-16T05:53:36.413Z,99.90
2019-01-16T05:56:23.448Z,99.90
2019-01-16T05:59:14.517Z,99.90
2019-01-16T06:02:17.928Z,99.90
2019-01-16T06:05:03.033Z,99.90
2019-01-16T06:07:48.093Z,99.70
2019-01-16T06:10:32.626Z,99.70
2019-01-16T06:13:21.367Z,99.60
2019-01-16T06:16:08.250Z,99.80
2019-01-16T06:18:59.717Z,99.90
2019-01-16T06:21:48.688Z,99.90
2019-01-16T06:24:37.455Z,99.90
2019-01-16T06:27:28.956Z,99.90
2019-01-16T06:30:11.315Z,99.90
2019-01-16T06:32:58.206Z,99.90
2019-01-16T06:35:46.558Z,99.90
2019-01-16T06:38:41.393Z,99.90
2019-01-16T06:41:28.510Z,99.90
2019-01-16T06:44:19.573Z,99.90
2019-01-16T06:46:58.723Z,99.90
2019-01-16T06:49:39.762Z,99.90
2019-01-16T06:52:19.118Z,99.90
2019-01-16T06:55:13.633Z,99.90
2019-01-16T06:58:09.521Z,99.90
2019-01-16T07:00:58.961Z,99.90
2019-01-16T07:03:56.389Z,99.90
2019-01-16T07:06:44.626Z,99.90
2019-01-16T07:09:31.580Z,99.90
2019-01-16T07:12:09.599Z,99.90
2019-01-16T07:15:03.746Z,99.90
2019-01-16T07:17:52.928Z,99.90
2019-01-16T07:20:44.265Z,99.90
2019-01-16T07:23:50.702Z,99.90
2019-01-16T07:26:41.668Z,99.90
2019-01-16T07:29:38.917Z,99.90
2019-01-16T07:32:26.107Z,99.90
2019-01-16T07:35:19.137Z,99.90
2019-01-16T07:38:07.430Z,99.90
2019-01-16T07:40:45.563Z,99.90
2019-01-16T07:43:39.750Z,99.90
2019-01-16T07:46:19.898Z,99.90
2019-01-16T07:49:01.193Z,99.90
2019-01-16T07:52:01.546Z,99.90
2019-01-16T07:54:59.295Z,99.90
2019-01-16T07:57:46.121Z,99.90
2019-01-16T08:00:37.539Z,99.90
2019-01-16T08:03:25.786Z,99.90
2019-01-16T08:06:12.911Z,99.90
2019-01-16T08:09:05.218Z,99.90
2019-01-16T08:11:52.530Z,99.90
2019-01-16T08:14:39.747Z,99.90
2019-01-16T08:17:28.071Z,99.90
2019-01-16T08:20:15.095Z,99.90
2019-01-16T08:22:58.574Z,99.90
2019-01-16T08:25:58.801Z,99.80
2019-01-16T08:28:59.114Z,99.70
2019-01-16T08:31:53.184Z,99.60
2019-01-16T08:34:44.513Z,99.60
2019-01-16T08:37:30.670Z,99.40
2019-01-16T08:40:27.884Z,99.30
2019-01-16T08:43:16.147Z,99.40
2019-01-16T08:46:03.137Z,99.50
2019-01-16T08:48:50.258Z,99.40
2019-01-16T08:51:41.332Z,99.40
2019-01-16T08:54:28.201Z,99.20
2019-01-16T08:57:15.470Z,99.20
2019-01-16T09:00:09.921Z,99.10
2019-01-16T09:02:51.750Z,99.10
2019-01-16T09:05:38.819Z,99.20
2019-01-16T09:08:45.524Z,99.30
2019-01-16T09:11:43.217Z,99.20
2019-01-16T09:14:31.521Z,99.30
2019-01-16T09:17:14.726Z,99.10
2019-01-16T09:20:08.242Z,99.10
2019-01-16T09:22:56.626Z,99.10
2019-01-16T09:25:43.754Z,99.20
2019-01-16T09:28:39.258Z,98.80
2019-01-16T09:31:27.564Z,99.00
2019-01-16T09:34:28.015Z,98.90
2019-01-16T09:37:28.440Z,99.00
2019-01-16T09:40:08.122Z,98.80
2019-01-16T09:42:59.469Z,99.00
2019-01-16T09:45:47.709Z,99.10
2019-01-16T09:48:41.778Z,98.80
2019-01-16T09:51:28.727Z,98.70
2019-01-16T09:54:15.735Z,98.70
2019-01-16T09:57:02.796Z,98.80
2019-01-16T09:59:54.114Z,98.50
2019-01-16T10:02:41.141Z,98.50
2019-01-16T10:05:27.982Z,98.80
2019-01-16T10:08:22.211Z,98.60
2019-01-16T10:11:10.595Z,98.70
2019-01-16T10:13:58.865Z,98.70
2019-01-16T10:16:41.050Z,98.40
2019-01-16T10:19:20.217Z,98.40
2019-01-16T10:22:17.802Z,98.30
2019-01-16T10:25:07.184Z,98.40
2019-01-16T10:28:03.289Z,98.60
2019-01-16T10:30:42.023Z,98.50
2019-01-16T10:33:20.854Z,98.30
2019-01-16T10:36:16.646Z,98.10
2019-01-16T10:39:19.989Z,98.10
2019-01-16T10:42:13.093Z,98.20
2019-01-16T10:44:52.761Z,98.20
2019-01-16T10:47:41.182Z,98.00
2019-01-16T10:50:29.945Z,98.20
2019-01-16T10:53:17.038Z,97.90
2019-01-16T10:56:11.426Z,97.80
2019-01-16T10:58:58.669Z,97.70
2019-01-16T11:01:45.860Z,97.90
2019-01-16T11:04:33.216Z,97.90
2019-01-16T11:07:21.527Z,98.00
2019-01-16T11:10:12.577Z,97.90
2019-01-16T11:13:12.969Z,97.60
2019-01-16T11:16:00.327Z,97.60
2019-01-16T11:18:57.181Z,97.60
2019-01-16T11:21:52.899Z,97.80
2019-01-16T11:24:39.690Z,97.60
2019-01-16T11:27:34.207Z,97.20
2019-01-16T11:30:21.288Z,97.20
2019-01-16T11:32:58.576Z,96.90
2019-01-16T11:35:49.623Z,96.80
2019-01-16T11:38:37.858Z,97.20
2019-01-16T11:41:41.467Z,96.80
2019-01-16T11:44:32.348Z,96.80
2019-01-16T11:47:26.792Z,96.60
2019-01-16T11:50:14.058Z,96.50
2019-01-16T11:53:08.465Z,96.50
2019-01-16T11:56:09.030Z,96.60
2019-01-16T11:58:57.353Z,96.50
2019-01-16T12:01:37.437Z,96.40
2019-01-16T12:04:17.445Z,96.60
2019-01-16T12:07:07.459Z,96.50
2019-01-16T12:09:58.345Z,96.50
2019-01-16T12:12:41.534Z,96.50
2019-01-16T12:15:41.908Z,96.40
2019-01-16T12:18:39.253Z,96.20
2019-01-16T12:21:26.717Z,95.90
2019-01-16T12:24:14.219Z,95.80
2019-01-16T12:26:55.490Z,95.90
2019-01-16T12:29:42.217Z,96.10
2019-01-16T12:32:21.997Z,95.80
2019-01-16T12:35:09.240Z,95.70
2019-01-16T12:37:56.811Z,95.80
2019-01-16T12:40:39.438Z,95.60
2019-01-16T12:43:33.758Z,95.70
2019-01-16T12:46:40.721Z,95.60
2019-01-16T12:49:28.015Z,95.50
2019-01-16T12:52:12.683Z,95.40
2019-01-16T12:55:06.966Z,95.20
2019-01-16T12:57:53.851Z,95.30
2019-01-16T13:00:45.088Z,95.30
2019-01-16T13:03:36.266Z,95.40
2019-01-16T13:09:25.714Z,95.10
2019-01-16T13:12:14.063Z,95.00
2019-01-16T13:14:54.438Z,94.90
2019-01-16T13:17:41.643Z,94.90
2019-01-16T13:20:33.593Z,94.80
2019-01-16T13:23:21.884Z,94.90
2019-01-16T13:26:13.577Z,94.80
2019-01-16T13:29:00.535Z,94.60
2019-01-16T13:31:39.395Z,94.90
2019-01-16T13:34:24.344Z,94.80
2019-01-16T13:37:05.766Z,94.80
2019-01-16T13:39:43.323Z,94.80
2019-01-16T13:42:40.786Z,94.80
2019-01-16T13:45:38.747Z,94.90
2019-01-16T13:48:20.991Z,94.80
2019-01-16T13:51:08.091Z,94.70
2019-01-16T13:53:56.336Z,94.60
2019-01-16T13:56:47.646Z,94.40
2019-01-16T13:59:38.779Z,94.50
2019-01-16T14:02:19.365Z,94.40
2019-01-16T14:05:07.605Z,94.60
2019-01-16T14:07:49.374Z,94.50
2019-01-16T14:10:43.568Z,94.50
2019-01-16T14:13:27.314Z,94.40
2019-01-16T14:16:18.397Z,94.70
2019-01-16T14:19:15.906Z,95.00
2019-01-16T14:22:07.205Z,94.90
2019-01-16T14:25:01.991Z,95.10
2019-01-16T14:28:05.389Z,95.00
2019-01-16T14:31:05.903Z,94.80
2019-01-16T14:33:50.683Z,94.70
2019-01-16T14:36:37.922Z,94.90
2019-01-16T14:39:28.488Z,94.70
2019-01-16T14:42:22.732Z,94.70
2019-01-16T14:45:08.024Z,94.00
2019-01-16T14:47:54.870Z,94.10
2019-01-16T14:50:52.222Z,93.90
2019-01-16T14:53:36.988Z,93.80
2019-01-16T14:56:24.249Z,93.50
2019-01-16T14:59:15.459Z,93.50
2019-01-16T15:02:02.873Z,93.40
2019-01-16T15:04:54.255Z,93.40
2019-01-16T15:07:41.618Z,93.50
2019-01-16T15:10:45.403Z,93.30
2019-01-16T15:13:32.323Z,93.40
2019-01-16T15:16:20.615Z,93.50
2019-01-16T15:19:11.898Z,93.70
2019-01-16T15:22:02.856Z,93.40
2019-01-16T15:24:53.290Z,93.20
2019-01-16T15:27:40.294Z,93.40
2019-01-16T15:30:39.335Z,93.50
2019-01-16T15:33:27.700Z,93.60
2019-01-16T15:36:14.582Z,93.60
2019-01-16T15:38:51.589Z,94.10
2019-01-16T15:41:54.975Z,93.90
2019-01-16T15:44:49.215Z,94.20
2019-01-16T15:47:36.343Z,94.30
2019-01-16T15:50:24.784Z,94.40
2019-01-16T15:53:22.081Z,94.50
2019-01-16T15:56:13.215Z,94.80
2019-01-16T15:58:59.360Z,94.90
2019-01-16T16:01:59.742Z,95.00
2019-01-16T16:04:48.967Z,95.20
2019-01-16T16:07:36.112Z,95.10
2019-01-16T16:10:25.865Z,95.20
2019-01-16T16:13:13.150Z,95.20
2019-01-16T16:15:51.508Z,95.20
2019-01-16T16:18:38.452Z,95.30
2019-01-16T16:21:42.150Z,95.50
2019-01-16T16:24:23.717Z,95.50
2019-01-16T16:27:10.869Z,95.50
2019-01-16T16:30:14.541Z,95.50
2019-01-16T16:33:01.401Z,95.70
2019-01-16T16:35:55.660Z,95.90
2019-01-16T16:38:43.969Z,96.10
2019-01-16T16:41:44.412Z,96.40
2019-01-16T16:44:31.765Z,96.80
2019-01-16T16:47:11.975Z,96.90
2019-01-16T16:50:03.321Z,97.20
2019-01-16T16:52:44.985Z,97.20
2019-01-16T16:55:31.805Z,97.10
2019-01-16T16:58:24.907Z,97.10
2019-01-16T17:01:12.179Z,97.20
2019-01-16T17:04:00.478Z,97.10
2019-01-16T17:06:57.541Z,97.10
2019-01-16T17:09:50.676Z,97.10
2019-01-16T17:12:37.861Z,97.00
2019-01-16T17:15:37.566Z,97.00
2019-01-16T17:18:14.809Z,97.10
2019-01-16T17:21:09.327Z,97.10
2019-01-16T17:24:10.105Z,96.60
2019-01-16T17:26:57.393Z,96.70
2019-01-16T17:29:44.498Z,96.60
2019-01-16T17:32:25.897Z,96.60
2019-01-16T17:35:16.959Z,96.70
2019-01-16T17:38:14.122Z,96.60
2019-01-16T17:40:56.098Z,96.60
2019-01-16T17:43:43.081Z,96.70
2019-01-16T17:46:27.765Z,96.70
2019-01-16T17:49:19.148Z,96.90
2019-01-16T17:52:01.103Z,96.70
2019-01-16T17:54:51.170Z,96.60
2019-01-16T17:57:51.855Z,96.60
2019-01-16T18:00:38.960Z,96.70
2019-01-16T18:03:31.098Z,96.90
2019-01-16T18:06:22.335Z,96.80
2019-01-16T18:09:14.510Z,96.90
2019-01-16T18:12:23.935Z,96.70
2019-01-16T18:15:13.641Z,96.90
2019-01-16T18:17:59.306Z,96.60
2019-01-16T18:20:50.683Z,96.50
2019-01-16T18:23:38.043Z,96.40
2019-01-16T18:26:26.349Z,96.20
2019-01-16T18:29:14.702Z,95.90
2019-01-16T18:32:03.058Z,95.60
2019-01-16T18:34:51.719Z,95.70
2019-01-16T18:37:38.927Z,95.80
2019-01-16T18:40:36.569Z,95.80
2019-01-16T18:43:23.865Z,95.70
2019-01-16T18:46:12.306Z,95.50
2019-01-16T18:48:50.377Z,95.40
2019-01-16T18:51:33.984Z,95.40
2019-01-16T18:54:20.975Z,95.60
2019-01-16T18:57:15.238Z,95.50
2019-01-16T19:00:05.774Z,95.70
2019-01-16T19:02:59.940Z,95.70
2019-01-16T19:05:49.745Z,95.80
2019-01-16T19:08:38.905Z,95.50
2019-01-16T19:11:29.949Z,95.60
2019-01-16T19:14:18.254Z,95.60
2019-01-16T19:17:09.614Z,95.60
2019-01-16T19:19:56.963Z,95.60
2019-01-16T19:22:33.328Z,95.60
2019-01-16T19:25:36.865Z,95.70
2019-01-16T19:28:35.295Z,95.90
2019-01-16T19:31:16.988Z,95.90
2019-01-16T19:34:14.610Z,96.00
2019-01-16T19:37:11.294Z,96.00
2019-01-16T19:39:58.185Z,96.00
2019-01-16T19:43:05.063Z,96.00
2019-01-16T19:45:53.453Z,96.10
2019-01-16T19:48:40.445Z,96.20
2019-01-16T19:51:28.749Z,96.20
2019-01-16T19:54:15.650Z,96.30
2019-01-16T19:57:03.985Z,96.20
2019-01-16T19:59:48.022Z,96.10
2019-01-16T20:02:36.370Z,95.90
2019-01-16T20:05:30.157Z,96.10
2019-01-16T20:08:21.812Z,96.00
2019-01-16T20:11:08.649Z,96.10
2019-01-16T20:14:00.102Z,96.10
2019-01-16T20:16:54.532Z,96.10
2019-01-16T20:19:45.917Z,96.10
2019-01-16T20:22:33.222Z,96.10
2019-01-16T20:25:35.318Z,96.20
2019-01-16T20:28:22.352Z,96.30
2019-01-16T20:31:05.253Z,96.50
2019-01-16T20:33:56.282Z,96.50
2019-01-16T20:36:43.376Z,96.50
2019-01-16T20:39:45.782Z,96.60
2019-01-16T20:42:34.117Z,96.60
2019-01-16T20:45:25.173Z,96.70
2019-01-16T20:48:15.012Z,96.70
2019-01-16T20:51:08.682Z,96.80
2019-01-16T20:53:49.923Z,96.80
2019-01-16T20:56:44.302Z,96.80
2019-01-16T20:59:31.218Z,96.90
2019-01-16T21:02:19.518Z,96.90
2019-01-16T21:05:11.058Z,96.90
2019-01-16T21:07:51.075Z,96.90
2019-01-16T21:10:30.912Z,96.80
2019-01-16T21:13:19.011Z,96.60
2019-01-16T21:16:10.462Z,96.40
2019-01-16T21:19:17.056Z,96.50
2019-01-16T21:22:05.413Z,96.40
2019-01-16T21:24:47.138Z,96.30
2019-01-16T21:27:47.516Z,96.20
2019-01-16T21:30:48.107Z,96.30
2019-01-16T21:33:42.080Z,96.20
2019-01-16T21:36:20.530Z,96.30
2019-01-16T21:39:12.030Z,96.20
2019-01-16T21:42:07.466Z,96.10
2019-01-16T21:45:07.681Z,96.00
2019-01-16T21:47:55.175Z,96.00
2019-01-16T21:50:42.510Z,96.00
2019-01-16T21:53:45.939Z,95.90
2019-01-16T21:56:43.304Z,96.10
2019-01-16T21:59:31.189Z,96.00
2019-01-16T22:02:24.270Z,96.40
2019-01-16T22:05:25.215Z,96.40
2019-01-16T22:08:13.507Z,96.40
2019-01-16T22:11:02.625Z,96.30
2019-01-16T22:13:40.655Z,96.20
2019-01-16T22:16:35.093Z,96.40
2019-01-16T22:19:32.646Z,96.50
2019-01-16T22:22:18.898Z,96.40
2019-01-16T22:25:06.039Z,96.50
2019-01-16T22:27:42.533Z,96.60
2019-01-16T22:30:38.651Z,96.30
2019-01-16T22:33:27.025Z,95.90
2019-01-16T22:36:09.997Z,95.40
2019-01-16T22:38:51.147Z,95.30
2019-01-16T22:41:43.526Z,94.90
2019-01-16T22:44:28.758Z,94.60
2019-01-16T22:47:32.145Z,94.70
2019-01-16T22:50:20.516Z,94.50
2019-01-16T22:53:26.973Z,94.30
2019-01-16T22:56:18.548Z,94.20
2019-01-16T22:59:12.710Z,94.30
2019-01-16T23:01:59.656Z,94.30
2019-01-16T23:05:03.353Z,94.40
2019-01-16T23:07:51.742Z,94.50
2019-01-16T23:10:45.880Z,94.60
2019-01-16T23:13:37.239Z,94.70
2019-01-16T23:16:31.546Z,94.80
2019-01-16T23:19:25.290Z,94.80
2019-01-16T23:22:08.785Z,94.90
2019-01-16T23:25:02.854Z,94.90
2019-01-16T23:27:53.016Z,94.90
2019-01-16T23:30:37.187Z,94.90
2019-01-16T23:33:23.774Z,94.80
2019-01-16T23:36:17.850Z,94.90
2019-01-16T23:38:57.800Z,94.90
2019-01-16T23:41:52.322Z,95.10
2019-01-16T23:44:49.880Z,94.90
2019-01-16T23:47:31.898Z,95.00
2019-01-16T23:50:20.301Z,94.90
2019-01-16T23:53:10.040Z,94.90
2019-01-16T23:56:10.626Z,95.00
2019-01-16T23:58:47.723Z,95.10
